This is the latest recevied weather packets stored in our database for station/object F4JUT-10. If no packets are shown the sender has not sent any weather packets the latest 10 day(s).
| Time | Temp. | Humidity | Pressure | Rain* | Wind** | Luminosity | Snow |
|---|---|---|---|---|---|---|---|
| 1777496567 | 16.67° C | 68% | 1018.9 hPa | - | - | - | - |
| 1777495667 | 16.67° C | 67% | 1018.7 hPa | - | - | - | - |
| 1777494767 | 17.22° C | 69% | 1018.7 hPa | - | - | - | - |
| 1777493867 | 17.78° C | 68% | 1018.5 hPa | - | - | - | - |
| 1777492967 | 18.33° C | 64% | 1018.3 hPa | - | - | - | - |
| 1777492067 | 18.33° C | 59% | 1018.1 hPa | - | - | - | - |
| 1777491166 | 18.89° C | 57% | 1018 hPa | - | - | - | - |
| 1777490266 | 19.44° C | 55% | 1017.9 hPa | - | - | - | - |
| 1777489366 | 20° C | 53% | 1017.8 hPa | - | - | - | - |
| 1777488466 | 20.56° C | 50% | 1017.6 hPa | - | - | - | - |
| 1777487566 | 21.11° C | 49% | 1017.5 hPa | - | - | - | - |
| 1777486666 | 21.67° C | 47% | 1017.3 hPa | - | - | - | - |
| 1777485766 | 22.78° C | 45% | 1017.2 hPa | - | - | - | - |
| 1777484866 | 22.78° C | 43% | 1017.1 hPa | - | - | - | - |
| 1777483966 | 23.33° C | 42% | 1017.1 hPa | - | - | - | - |
| 1777483066 | 23.89° C | 39% | 1017 hPa | - | - | - | - |
| 1777482166 | 24.44° C | 38% | 1016.9 hPa | - | - | - | - |
| 1777481265 | 25.56° C | 34% | 1017 hPa | - | - | - | - |
| 1777480365 | 26.67° C | 32% | 1017.1 hPa | - | - | - | - |
| 1777479465 | 27.78° C | 31% | 1017 hPa | - | - | - | - |
| 1777478565 | 28.89° C | 29% | 1017.1 hPa | - | - | - | - |
| 1777477665 | 30° C | 28% | 1017 hPa | - | - | - | - |
| 1777476765 | 30.56° C | 28% | 1017 hPa | - | - | - | - |
| 1777475865 | 31.67° C | 27% | 1017 hPa | - | - | - | - |
| 1777474965 | 32.22° C | 26% | 1017.1 hPa | - | - | - | - |
* Rain since midnight (hover to see other rain measurements)
** Current wind speed in m/s (hover to see current wind gust speed)